createdAt,value
2023-02-16T00:00:11.702Z,112
2023-02-16T00:01:23.715Z,112
2023-02-16T00:02:31.642Z,116
2023-02-16T00:03:38.469Z,112
2023-02-16T00:04:46.234Z,112
2023-02-16T00:05:53.952Z,112
2023-02-16T00:07:01.731Z,104
2023-02-16T00:08:10.491Z,117
2023-02-16T00:09:17.366Z,104
2023-02-16T00:10:25.025Z,110
2023-02-16T00:11:37.156Z,112
2023-02-16T00:12:49.240Z,100
2023-02-16T00:14:01.203Z,109
2023-02-16T00:15:08.901Z,107
2023-02-16T00:16:16.851Z,103
2023-02-16T00:17:25.764Z,107
2023-02-16T00:18:33.751Z,108
2023-02-16T00:19:41.399Z,107
2023-02-16T00:20:48.204Z,102
2023-02-16T00:21:56.227Z,114
2023-02-16T00:23:03.923Z,111
2023-02-16T00:24:11.988Z,111
2023-02-16T00:25:19.839Z,103
2023-02-16T00:26:27.014Z,110
2023-02-16T00:27:33.802Z,94
2023-02-16T00:28:42.116Z,114
2023-02-16T00:29:49.896Z,107
2023-02-16T00:30:58.451Z,112
2023-02-16T00:32:05.428Z,113
2023-02-16T00:33:13.479Z,113
2023-02-16T00:34:21.632Z,113
2023-02-16T00:35:31.292Z,112
2023-02-16T00:36:38.275Z,117
2023-02-16T00:37:45.063Z,114
2023-02-16T00:38:51.847Z,109
2023-02-16T00:39:58.595Z,110
2023-02-16T00:41:06.699Z,102
2023-02-16T00:42:21.365Z,119
2023-02-16T00:43:28.980Z,113
2023-02-16T00:44:36.710Z,116
2023-02-16T00:45:43.533Z,118
2023-02-16T00:46:50.467Z,114
2023-02-16T00:47:57.355Z,121
2023-02-16T00:49:04.241Z,115
2023-02-16T00:50:11.052Z,116
2023-02-16T00:51:25.957Z,111
2023-02-16T00:52:30.987Z,113
2023-02-16T00:53:42.053Z,122
2023-02-16T00:54:48.945Z,121
2023-02-16T00:55:56.703Z,121
2023-02-16T00:57:04.035Z,122
2023-02-16T00:58:10.878Z,121
2023-02-16T00:59:26.838Z,107
2023-02-16T01:00:33.746Z,119
2023-02-16T01:01:41.682Z,119
2023-02-16T01:02:48.601Z,119
2023-02-16T01:03:55.488Z,118
2023-02-16T01:05:02.324Z,115
2023-02-16T01:06:11.109Z,114
2023-02-16T01:07:23.056Z,109
2023-02-16T01:08:35.191Z,116
2023-02-16T01:09:48.382Z,116
2023-02-16T01:11:01.701Z,120
2023-02-16T01:12:13.616Z,118
2023-02-16T01:13:21.293Z,120
2023-02-16T01:14:29.137Z,112
2023-02-16T01:15:36.066Z,116
2023-02-16T01:16:44.158Z,113
2023-02-16T01:17:51.017Z,118
2023-02-16T01:18:57.857Z,118
2023-02-16T01:20:05.567Z,118
2023-02-16T01:21:17.534Z,108
2023-02-16T01:22:24.410Z,117
2023-02-16T01:23:32.341Z,121
2023-02-16T01:24:39.116Z,120
2023-02-16T01:25:46.968Z,119
2023-02-16T01:26:53.864Z,121
2023-02-16T01:28:01.766Z,120
2023-02-16T01:29:13.761Z,118
2023-02-16T01:30:21.546Z,125
2023-02-16T01:31:28.362Z,119
2023-02-16T01:32:35.049Z,111
2023-02-16T01:33:43.452Z,112
2023-02-16T01:34:50.421Z,112
2023-02-16T01:35:57.761Z,113
2023-02-16T01:37:04.589Z,118
2023-02-16T01:38:12.427Z,110
2023-02-16T01:39:24.114Z,102
2023-02-16T01:40:30.956Z,113
2023-02-16T01:41:37.832Z,107
2023-02-16T01:42:49.817Z,112
2023-02-16T01:43:57.594Z,111
2023-02-16T01:45:09.968Z,100
2023-02-16T01:46:17.666Z,100
2023-02-16T01:47:24.548Z,111
2023-02-16T01:48:36.530Z,105
2023-02-16T01:49:44.703Z,110
2023-02-16T01:50:51.487Z,111
2023-02-16T01:51:59.274Z,94
2023-02-16T01:53:08.935Z,103
2023-02-16T01:54:21.758Z,109
2023-02-16T01:55:39.862Z,98
2023-02-16T01:56:46.619Z,104
2023-02-16T01:57:53.547Z,105
2023-02-16T01:59:08.081Z,100
2023-02-16T02:00:15.670Z,105
2023-02-16T02:01:29.435Z,108
2023-02-16T02:02:40.451Z,102
2023-02-16T02:03:48.428Z,99
2023-02-16T02:05:01.127Z,101
2023-02-16T02:06:21.286Z,103
2023-02-16T02:07:28.459Z,111
2023-02-16T02:08:41.123Z,109
2023-02-16T02:09:58.215Z,114
2023-02-16T02:11:05.470Z,113
2023-02-16T02:12:17.127Z,114
2023-02-16T02:13:37.183Z,111
2023-02-16T02:14:49.176Z,118
2023-02-16T02:15:56.098Z,112
2023-02-16T02:17:02.917Z,113
2023-02-16T02:18:14.850Z,114
2023-02-16T02:19:23.415Z,118
2023-02-16T02:20:30.490Z,114
2023-02-16T02:21:52.802Z,115
2023-02-16T02:23:16.154Z,114
2023-02-16T02:24:33.199Z,116
2023-02-16T02:25:49.119Z,120
2023-02-16T02:27:01.155Z,112
2023-02-16T02:28:17.014Z,117
2023-02-16T02:29:34.105Z,121
2023-02-16T02:30:46.208Z,115
2023-02-16T02:31:52.999Z,119
2023-02-16T02:33:10.101Z,119
2023-02-16T02:34:22.186Z,120
2023-02-16T02:35:40.169Z,118
2023-02-16T02:36:53.413Z,119
2023-02-16T02:38:06.429Z,118
2023-02-16T02:39:18.377Z,110
2023-02-16T02:40:35.633Z,117
2023-02-16T02:41:49.474Z,106
2023-02-16T02:43:06.567Z,114
2023-02-16T02:44:21.467Z,120
2023-02-16T02:45:29.337Z,114
2023-02-16T02:46:42.317Z,109
2023-02-16T02:47:49.276Z,112
2023-02-16T02:48:56.150Z,114
2023-02-16T02:50:03.959Z,111
2023-02-16T02:51:21.106Z,109
2023-02-16T02:52:33.156Z,118
2023-02-16T02:53:39.989Z,111
2023-02-16T02:54:52.065Z,116
2023-02-16T02:56:04.916Z,112
2023-02-16T02:57:16.931Z,110
2023-02-16T02:58:36.780Z,116
2023-02-16T02:59:48.911Z,111
2023-02-16T03:01:06.302Z,114
2023-02-16T03:02:13.770Z,119
2023-02-16T03:03:20.642Z,114
2023-02-16T03:04:38.587Z,122
2023-02-16T03:05:45.910Z,117
2023-02-16T03:06:56.448Z,118
2023-02-16T03:08:03.279Z,122
2023-02-16T03:09:13.884Z,119
2023-02-16T03:10:20.736Z,119
2023-02-16T03:11:33.632Z,122
2023-02-16T03:12:45.518Z,122
2023-02-16T03:13:52.304Z,109
2023-02-16T03:15:05.944Z,118
2023-02-16T03:16:13.666Z,116
2023-02-16T03:17:20.490Z,113
2023-02-16T03:18:35.303Z,121
2023-02-16T03:19:47.335Z,114
2023-02-16T03:21:00.159Z,119
2023-02-16T03:22:13.187Z,120
2023-02-16T03:23:25.931Z,118
2023-02-16T03:24:37.989Z,120
2023-02-16T03:25:50.003Z,115
2023-02-16T03:27:03.725Z,119
2023-02-16T03:28:15.751Z,118
2023-02-16T03:29:27.831Z,118
2023-02-16T03:30:34.818Z,119
2023-02-16T03:31:41.576Z,116
2023-02-16T03:32:49.840Z,117
2023-02-16T03:33:56.679Z,117
2023-02-16T03:35:04.811Z,124
2023-02-16T03:36:14.771Z,119
2023-02-16T03:37:21.896Z,119
2023-02-16T03:38:28.860Z,117
2023-02-16T03:39:36.434Z,122
2023-02-16T03:40:48.439Z,121
2023-02-16T03:41:57.502Z,120
2023-02-16T03:43:06.046Z,114
2023-02-16T03:44:12.917Z,119
2023-02-16T03:45:21.646Z,112
2023-02-16T03:46:28.533Z,116
2023-02-16T03:47:35.447Z,115
2023-02-16T03:48:42.484Z,115
2023-02-16T03:49:49.250Z,117
2023-02-16T03:50:59.195Z,117
2023-02-16T03:52:06.046Z,117
2023-02-16T03:53:12.831Z,116
2023-02-16T03:54:19.718Z,119
2023-02-16T03:55:27.597Z,118
2023-02-16T03:56:34.431Z,119
2023-02-16T03:57:41.308Z,117
2023-02-16T03:58:48.200Z,119
2023-02-16T03:59:55.006Z,119
2023-02-16T04:01:02.308Z,121
2023-02-16T04:02:10.995Z,116
2023-02-16T04:03:18.909Z,116
2023-02-16T04:04:25.886Z,124
2023-02-16T04:05:33.658Z,119
2023-02-16T04:06:41.430Z,118
2023-02-16T04:07:48.302Z,119
2023-02-16T04:08:56.093Z,115
2023-02-16T04:10:03.968Z,121
2023-02-16T04:11:10.962Z,120
2023-02-16T04:12:23.090Z,117
2023-02-16T04:13:35.100Z,125
2023-02-16T04:14:43.650Z,119
2023-02-16T04:15:52.315Z,118
2023-02-16T04:17:00.115Z,121
2023-02-16T04:18:07.952Z,119
2023-02-16T04:19:15.647Z,121
2023-02-16T04:20:24.668Z,116
2023-02-16T04:21:32.478Z,118
2023-02-16T04:22:41.330Z,119
2023-02-16T04:23:48.234Z,123
2023-02-16T04:24:55.198Z,114
2023-02-16T04:26:02.214Z,120
2023-02-16T04:27:10.155Z,118
2023-02-16T04:28:17.342Z,119
2023-02-16T04:29:25.022Z,127
2023-02-16T04:30:32.945Z,120
2023-02-16T04:31:41.551Z,118
2023-02-16T04:32:50.018Z,115
2023-02-16T04:33:57.842Z,120
2023-02-16T04:35:04.729Z,117
2023-02-16T04:36:13.167Z,120
2023-02-16T04:37:19.972Z,121
2023-02-16T04:38:26.971Z,120
2023-02-16T04:39:33.896Z,117
2023-02-16T04:40:40.903Z,116
2023-02-16T04:41:47.816Z,118
2023-02-16T04:42:54.609Z,123
2023-02-16T04:44:01.490Z,119
2023-02-16T04:45:08.474Z,118
2023-02-16T04:46:15.606Z,120
2023-02-16T04:47:22.493Z,125
2023-02-16T04:48:32.431Z,116
2023-02-16T04:49:39.376Z,118
2023-02-16T04:50:47.618Z,117
2023-02-16T04:51:54.475Z,114
2023-02-16T04:53:03.789Z,121
2023-02-16T04:54:10.833Z,119
2023-02-16T04:55:18.858Z,119
2023-02-16T04:56:26.040Z,120
2023-02-16T04:57:32.909Z,119
2023-02-16T04:58:40.723Z,125
2023-02-16T04:59:50.005Z,121
2023-02-16T05:00:56.820Z,116
2023-02-16T05:02:05.093Z,115
2023-02-16T05:03:12.033Z,116
2023-02-16T05:04:19.712Z,119
2023-02-16T05:05:26.575Z,113
2023-02-16T05:06:34.475Z,115
2023-02-16T05:07:44.004Z,117
2023-02-16T05:08:50.853Z,119
2023-02-16T05:09:58.889Z,115
2023-02-16T05:11:05.824Z,121
2023-02-16T05:12:20.800Z,118
2023-02-16T05:13:32.700Z,118
2023-02-16T05:14:44.692Z,116
2023-02-16T05:15:52.412Z,119
2023-02-16T05:16:59.215Z,117
2023-02-16T05:18:06.212Z,120
2023-02-16T05:19:14.608Z,113
2023-02-16T05:20:22.489Z,118
2023-02-16T05:21:29.382Z,118
2023-02-16T05:22:41.608Z,122
2023-02-16T05:23:51.249Z,121
2023-02-16T05:24:57.987Z,119
2023-02-16T05:26:05.700Z,121
2023-02-16T05:27:12.610Z,114
2023-02-16T05:28:22.527Z,117
2023-02-16T05:29:29.345Z,115
2023-02-16T05:30:36.244Z,116
2023-02-16T05:31:44.068Z,115
2023-02-16T05:32:50.777Z,117
2023-02-16T05:33:58.409Z,117
2023-02-16T05:35:05.332Z,118
2023-02-16T05:36:12.430Z,118
2023-02-16T05:37:19.294Z,119
2023-02-16T05:38:27.662Z,119
2023-02-16T05:39:36.294Z,110
2023-02-16T05:40:43.345Z,118
2023-02-16T05:41:51.180Z,108
2023-02-16T05:42:57.995Z,121
2023-02-16T05:44:05.892Z,116
2023-02-16T05:45:12.821Z,123
2023-02-16T05:46:20.637Z,124
2023-02-16T05:47:27.576Z,117
2023-02-16T05:48:35.349Z,116
2023-02-16T05:49:42.218Z,121
2023-02-16T05:50:49.770Z,122
2023-02-16T05:51:59.333Z,118
2023-02-16T05:53:06.287Z,120
2023-02-16T05:54:14.071Z,121
2023-02-16T05:55:21.098Z,117
2023-02-16T05:56:28.643Z,121
2023-02-16T05:57:35.554Z,115
2023-02-16T05:58:42.292Z,110
2023-02-16T05:59:50.114Z,117
2023-02-16T06:00:58.808Z,110
2023-02-16T06:02:06.544Z,117
2023-02-16T06:03:14.319Z,118
2023-02-16T06:04:22.529Z,113
2023-02-16T06:05:30.399Z,118
2023-02-16T06:06:38.903Z,116
2023-02-16T06:07:45.783Z,117
2023-02-16T06:08:52.758Z,120
2023-02-16T06:10:00.528Z,120
2023-02-16T06:11:08.437Z,118
2023-02-16T06:12:15.172Z,121
2023-02-16T06:13:22.927Z,115
2023-02-16T06:14:29.764Z,121
2023-02-16T06:15:36.599Z,119
2023-02-16T06:16:44.478Z,110
2023-02-16T06:17:52.380Z,110
2023-02-16T06:18:59.346Z,113
2023-02-16T06:20:06.212Z,121
2023-02-16T06:21:13.305Z,111
2023-02-16T06:22:20.117Z,110
2023-02-16T06:23:28.777Z,114
2023-02-16T06:24:36.512Z,116
2023-02-16T06:25:44.244Z,108
2023-02-16T06:26:51.044Z,117
2023-02-16T06:27:57.853Z,108
2023-02-16T06:29:06.691Z,114
2023-02-16T06:30:15.523Z,109
2023-02-16T06:31:22.765Z,112
2023-02-16T06:32:29.705Z,111
2023-02-16T06:33:37.889Z,110
2023-02-16T06:34:44.895Z,116
2023-02-16T06:35:54.051Z,117
2023-02-16T06:37:00.839Z,120
2023-02-16T06:38:08.700Z,121
2023-02-16T06:39:16.507Z,110
2023-02-16T06:40:23.467Z,121
2023-02-16T06:41:30.379Z,113
2023-02-16T06:42:38.412Z,112
2023-02-16T06:43:45.127Z,110
2023-02-16T06:44:52.934Z,112
2023-02-16T06:45:58.133Z,112
2023-02-16T06:47:05.343Z,113
2023-02-16T06:48:12.297Z,111
2023-02-16T06:49:20.105Z,108
2023-02-16T06:50:29.043Z,114
2023-02-16T06:51:35.848Z,101
2023-02-16T06:52:43.768Z,116
2023-02-16T06:53:52.515Z,109
2023-02-16T06:55:00.261Z,105
2023-02-16T06:56:07.239Z,113
2023-02-16T06:57:14.286Z,118
2023-02-16T06:58:22.014Z,106
2023-02-16T06:59:28.847Z,101
2023-02-16T07:00:35.871Z,109
2023-02-16T07:01:44.915Z,114
2023-02-16T07:02:49.605Z,112
2023-02-16T07:03:57.462Z,116
2023-02-16T07:05:05.638Z,117
2023-02-16T07:06:13.493Z,119
2023-02-16T07:07:21.091Z,116
2023-02-16T07:08:30.018Z,121
2023-02-16T07:09:39.712Z,117
2023-02-16T07:10:50.283Z,117
2023-02-16T07:11:55.111Z,118
2023-02-16T07:13:02.851Z,105
2023-02-16T07:14:11.257Z,126
2023-02-16T07:15:18.124Z,112
2023-02-16T07:16:25.995Z,105
2023-02-16T07:17:33.786Z,100
2023-02-16T07:18:40.621Z,109
2023-02-16T07:19:49.366Z,107
2023-02-16T07:20:56.194Z,105
2023-02-16T07:22:03.810Z,110
2023-02-16T07:23:11.596Z,107
2023-02-16T07:24:19.098Z,107
2023-02-16T07:25:28.597Z,106
2023-02-16T07:26:36.229Z,106
2023-02-16T07:27:43.155Z,95
2023-02-16T07:28:51.151Z,107
2023-02-16T07:29:59.050Z,102
2023-02-16T07:31:07.391Z,98
2023-02-16T07:32:13.976Z,116
2023-02-16T07:33:20.905Z,104
2023-02-16T07:34:28.608Z,105
2023-02-16T07:35:35.572Z,101
2023-02-16T07:36:43.880Z,95
2023-02-16T07:37:50.784Z,95
2023-02-16T07:39:01.076Z,95
2023-02-16T07:40:08.016Z,83
2023-02-16T07:41:15.198Z,91
2023-02-16T07:42:22.026Z,95
2023-02-16T07:43:29.887Z,90
2023-02-16T07:44:36.758Z,86
2023-02-16T07:45:46.458Z,81
2023-02-16T07:46:53.162Z,90
2023-02-16T07:48:00.872Z,94
2023-02-16T07:49:07.931Z,88
2023-02-16T07:50:14.785Z,84
2023-02-16T07:51:21.558Z,85
2023-02-16T07:52:29.405Z,73
2023-02-16T07:53:36.280Z,84
2023-02-16T07:54:44.393Z,83
2023-02-16T07:55:51.449Z,72
2023-02-16T07:57:03.172Z,87
2023-02-16T07:58:10.006Z,77
2023-02-16T07:59:17.254Z,83
2023-02-16T08:00:24.412Z,88
2023-02-16T08:01:32.168Z,82
2023-02-16T08:02:39.765Z,80
2023-02-16T08:03:47.453Z,79
2023-02-16T08:04:54.379Z,76
2023-02-16T08:06:02.221Z,67
2023-02-16T08:07:09.362Z,83
2023-02-16T08:08:16.239Z,77
2023-02-16T08:09:23.201Z,87
2023-02-16T08:10:30.148Z,73
2023-02-16T08:11:37.334Z,77
2023-02-16T08:12:44.198Z,76
2023-02-16T08:13:51.996Z,82
2023-02-16T08:15:00.260Z,69
2023-02-16T08:16:07.553Z,71
2023-02-16T08:17:14.192Z,69
2023-02-16T08:18:21.140Z,70
2023-02-16T08:19:28.145Z,59
2023-02-16T08:20:51.077Z,67
2023-02-16T08:21:41.944Z,69
2023-02-16T08:22:50.085Z,61
2023-02-16T08:24:01.174Z,57
2023-02-16T08:25:08.205Z,53
2023-02-16T08:26:15.062Z,54
2023-02-16T08:27:22.960Z,62
2023-02-16T08:28:30.006Z,51
2023-02-16T08:29:36.845Z,41
2023-02-16T08:30:43.787Z,42
2023-02-16T08:31:51.707Z,45
2023-02-16T08:32:58.423Z,43
2023-02-16T08:34:07.744Z,36
2023-02-16T08:35:15.651Z,33
2023-02-16T08:36:22.707Z,46
2023-02-16T08:37:29.617Z,41
2023-02-16T08:38:36.467Z,41
2023-02-16T08:39:45.154Z,40
2023-02-16T08:40:52.039Z,37
2023-02-16T08:41:59.127Z,35
2023-02-16T08:43:07.899Z,37
2023-02-16T08:44:15.947Z,25
2023-02-16T08:45:22.699Z,35
2023-02-16T08:46:30.545Z,38
2023-02-16T08:47:37.426Z,30
2023-02-16T08:48:44.502Z,29
2023-02-16T08:49:51.339Z,40
2023-02-16T08:50:58.400Z,36
2023-02-16T08:52:05.599Z,31
2023-02-16T08:53:12.588Z,25
2023-02-16T08:54:20.347Z,25
2023-02-16T08:55:27.167Z,28
2023-02-16T08:56:34.496Z,37
2023-02-16T08:57:41.470Z,32
2023-02-16T08:58:49.829Z,32
2023-02-16T08:59:57.391Z,28
2023-02-16T09:01:10.739Z,31
2023-02-16T09:02:26.467Z,47
2023-02-16T09:03:36.274Z,40
2023-02-16T09:04:43.812Z,35
2023-02-16T09:05:52.404Z,35
2023-02-16T09:06:59.638Z,28
2023-02-16T09:08:06.805Z,25
2023-02-16T09:09:13.812Z,40
2023-02-16T09:10:21.509Z,31
2023-02-16T09:11:30.532Z,35
2023-02-16T09:12:37.700Z,30
2023-02-16T09:13:44.650Z,35
2023-02-16T09:14:51.557Z,30
2023-02-16T09:15:58.464Z,29
2023-02-16T09:17:12.480Z,27
2023-02-16T09:18:19.754Z,32
2023-02-16T09:19:28.864Z,27
2023-02-16T09:20:35.732Z,25
2023-02-16T09:21:45.456Z,32
2023-02-16T09:22:55.418Z,25
2023-02-16T09:24:05.401Z,31
2023-02-16T09:25:16.638Z,25
2023-02-16T09:26:23.552Z,29
2023-02-16T09:27:34.031Z,34
2023-02-16T09:28:44.382Z,28
2023-02-16T09:29:51.232Z,30
2023-02-16T09:30:58.391Z,26
2023-02-16T09:32:05.592Z,27
2023-02-16T09:33:12.552Z,33
2023-02-16T09:34:20.348Z,28
2023-02-16T09:35:28.984Z,34
2023-02-16T09:36:36.147Z,33
2023-02-16T09:37:44.967Z,35
2023-02-16T09:38:52.476Z,25
2023-02-16T09:40:00.659Z,30
2023-02-16T09:41:10.017Z,25
2023-02-16T09:42:25.860Z,28
2023-02-16T09:43:40.960Z,25
2023-02-16T09:44:53.047Z,28
2023-02-16T09:46:10.493Z,33
2023-02-16T09:47:17.332Z,38
2023-02-16T09:48:33.268Z,34
2023-02-16T09:49:40.184Z,25
2023-02-16T09:50:54.455Z,25
2023-02-16T09:51:58.699Z,25
2023-02-16T09:53:09.740Z,25
2023-02-16T09:54:16.734Z,28
2023-02-16T09:55:23.543Z,48
2023-02-16T09:56:33.513Z,47
2023-02-16T09:57:48.094Z,36
2023-02-16T09:59:00.087Z,38
2023-02-16T10:00:13.028Z,25
2023-02-16T10:01:28.597Z,25
2023-02-16T10:02:44.541Z,44
2023-02-16T10:03:55.844Z,37
2023-02-16T10:05:12.010Z,25
2023-02-16T10:06:27.079Z,46
2023-02-16T10:07:42.267Z,37
2023-02-16T10:08:57.001Z,36
2023-02-16T10:10:10.225Z,43
2023-02-16T10:11:17.301Z,28
2023-02-16T10:12:34.579Z,26
2023-02-16T10:13:42.437Z,53
2023-02-16T10:14:49.978Z,59
2023-02-16T10:16:02.865Z,45
2023-02-16T10:17:09.760Z,42
2023-02-16T10:18:19.298Z,50
2023-02-16T10:19:29.053Z,45
2023-02-16T10:20:41.961Z,51
2023-02-16T10:21:49.468Z,45
2023-02-16T10:22:56.337Z,29
2023-02-16T10:24:14.369Z,25
2023-02-16T10:25:21.357Z,39
2023-02-16T10:26:38.799Z,38
2023-02-16T10:27:52.381Z,35
2023-02-16T10:29:02.282Z,25
2023-02-16T10:30:12.284Z,28
2023-02-16T10:31:19.301Z,61
2023-02-16T10:32:39.396Z,27
2023-02-16T10:33:43.460Z,55
2023-02-16T10:34:55.598Z,29
2023-02-16T10:36:12.848Z,42
2023-02-16T10:37:28.620Z,33
2023-02-16T10:38:44.526Z,32
2023-02-16T10:40:02.450Z,35
2023-02-16T10:41:19.884Z,31
2023-02-16T10:42:37.089Z,40
2023-02-16T10:43:51.862Z,29
2023-02-16T10:45:04.027Z,42
2023-02-16T10:46:22.051Z,35
2023-02-16T10:47:31.147Z,34
2023-02-16T10:48:41.163Z,25
2023-02-16T10:49:48.053Z,48
2023-02-16T10:50:54.903Z,56
2023-02-16T10:52:13.150Z,42
2023-02-16T10:53:22.129Z,39
2023-02-16T10:54:36.964Z,42
2023-02-16T10:55:44.050Z,60
2023-02-16T10:56:52.932Z,36
2023-02-16T10:58:02.606Z,46
2023-02-16T10:59:12.408Z,25
2023-02-16T11:00:23.244Z,25
2023-02-16T11:01:41.637Z,25
2023-02-16T11:02:52.386Z,47
2023-02-16T11:04:00.250Z,40
2023-02-16T11:05:07.090Z,43
2023-02-16T11:06:24.438Z,36
2023-02-16T11:07:31.296Z,34
2023-02-16T11:08:38.072Z,52
2023-02-16T11:09:52.766Z,30
2023-02-16T11:11:00.541Z,36
2023-02-16T11:12:09.903Z,51
2023-02-16T11:13:19.198Z,31
2023-02-16T11:14:36.355Z,54
2023-02-16T11:15:43.304Z,28
2023-02-16T11:16:51.023Z,35
2023-02-16T11:18:05.878Z,30
2023-02-16T11:19:13.695Z,44
2023-02-16T11:20:23.427Z,43
2023-02-16T11:21:31.123Z,29
2023-02-16T11:22:48.347Z,29
2023-02-16T11:23:55.214Z,25
2023-02-16T11:25:08.997Z,32
2023-02-16T11:26:16.656Z,31
2023-02-16T11:27:24.609Z,42
2023-02-16T11:28:32.606Z,37
2023-02-16T11:29:44.406Z,34
2023-02-16T11:30:51.535Z,30
2023-02-16T11:32:04.425Z,47
2023-02-16T11:33:14.476Z,36
2023-02-16T11:34:25.416Z,40
2023-02-16T11:35:33.084Z,42
2023-02-16T11:36:39.953Z,30
2023-02-16T11:37:46.908Z,25
2023-02-16T11:38:53.777Z,43
2023-02-16T11:40:00.671Z,43
2023-02-16T11:41:13.377Z,41
2023-02-16T11:42:20.284Z,50
2023-02-16T11:43:32.793Z,25
2023-02-16T11:44:40.613Z,37
2023-02-16T11:45:53.473Z,51
2023-02-16T11:47:04.334Z,37
2023-02-16T11:48:13.733Z,44
2023-02-16T11:49:21.950Z,54
2023-02-16T11:50:40.065Z,55
2023-02-16T11:51:57.276Z,30
2023-02-16T11:53:04.342Z,31
2023-02-16T11:54:15.557Z,32
2023-02-16T11:55:25.746Z,37
2023-02-16T11:56:33.238Z,50
2023-02-16T11:57:40.229Z,28
2023-02-16T11:58:48.042Z,26
2023-02-16T12:00:07.459Z,34
2023-02-16T12:01:20.924Z,27
2023-02-16T12:02:27.916Z,33
2023-02-16T12:03:41.281Z,41
2023-02-16T12:04:53.397Z,45
2023-02-16T12:06:09.324Z,59
2023-02-16T12:07:26.675Z,37
2023-02-16T12:08:36.935Z,36
2023-02-16T12:09:54.165Z,27
2023-02-16T12:11:14.410Z,37
2023-02-16T12:12:26.717Z,42
2023-02-16T12:13:36.611Z,36
2023-02-16T12:14:53.998Z,44
2023-02-16T12:16:09.296Z,32
2023-02-16T12:17:25.095Z,31
2023-02-16T12:18:31.987Z,44
2023-02-16T12:19:38.833Z,43
2023-02-16T12:20:45.772Z,41
2023-02-16T12:21:53.931Z,67
2023-02-16T12:23:06.954Z,45
2023-02-16T12:24:18.930Z,68
2023-02-16T12:25:34.118Z,60
2023-02-16T12:26:41.162Z,61
2023-02-16T12:27:59.527Z,59
2023-02-16T12:29:09.986Z,65
2023-02-16T12:30:26.755Z,43
2023-02-16T12:31:42.170Z,60
2023-02-16T12:32:56.528Z,44
2023-02-16T12:34:11.441Z,46
2023-02-16T12:35:22.770Z,62
2023-02-16T12:36:36.905Z,73
2023-02-16T12:37:56.044Z,65
2023-02-16T12:39:10.583Z,60
2023-02-16T12:40:24.519Z,58
2023-02-16T12:41:41.883Z,64
2023-02-16T12:42:51.770Z,63
2023-02-16T12:43:59.540Z,69
2023-02-16T12:45:06.626Z,71
2023-02-16T12:46:16.858Z,64
2023-02-16T12:47:28.283Z,56
2023-02-16T12:48:44.915Z,59
2023-02-16T12:50:00.894Z,55
2023-02-16T12:51:16.853Z,58
2023-02-16T12:52:31.445Z,58
2023-02-16T12:53:46.494Z,54
2023-02-16T12:54:58.552Z,59
2023-02-16T12:56:10.798Z,52
2023-02-16T12:57:17.781Z,58
2023-02-16T12:58:26.602Z,60
2023-02-16T12:59:36.016Z,31
2023-02-16T13:00:49.908Z,38
2023-02-16T13:01:58.187Z,41
2023-02-16T13:03:06.123Z,33
2023-02-16T13:04:23.158Z,41
2023-02-16T13:05:30.954Z,39
2023-02-16T13:06:41.379Z,43
2023-02-16T13:07:50.449Z,47
2023-02-16T13:08:57.627Z,35
2023-02-16T13:10:17.527Z,44
2023-02-16T13:11:36.084Z,57
2023-02-16T13:12:56.806Z,62
2023-02-16T13:14:08.920Z,41
2023-02-16T13:15:16.861Z,55
2023-02-16T13:16:30.324Z,47
2023-02-16T13:17:42.233Z,56
2023-02-16T13:18:59.425Z,37
2023-02-16T13:20:06.782Z,58
2023-02-16T13:21:19.865Z,48
2023-02-16T13:22:26.781Z,48
2023-02-16T13:23:36.607Z,42
2023-02-16T13:24:57.854Z,35
2023-02-16T13:26:12.618Z,51
2023-02-16T13:27:27.267Z,45
2023-02-16T13:28:44.797Z,48
2023-02-16T13:29:59.676Z,47
2023-02-16T13:31:17.769Z,47
2023-02-16T13:32:36.716Z,32
2023-02-16T13:33:51.248Z,51
2023-02-16T13:35:03.639Z,30
2023-02-16T13:36:20.898Z,45
2023-02-16T13:37:37.386Z,37
2023-02-16T13:38:53.391Z,56
2023-02-16T13:40:05.489Z,60
2023-02-16T13:41:18.174Z,60
2023-02-16T13:42:35.702Z,36
2023-02-16T13:43:47.739Z,49
2023-02-16T13:45:04.984Z,37
2023-02-16T13:46:17.258Z,54
2023-02-16T13:47:24.257Z,58
2023-02-16T13:48:38.657Z,59
2023-02-16T13:49:49.296Z,61
2023-02-16T13:51:02.406Z,59
2023-02-16T13:52:09.585Z,62
2023-02-16T13:53:29.652Z,61
2023-02-16T13:54:39.454Z,63
2023-02-16T13:55:49.328Z,58
2023-02-16T13:56:56.386Z,67
2023-02-16T13:58:03.418Z,59
2023-02-16T13:59:17.363Z,52
2023-02-16T14:00:24.342Z,51
2023-02-16T14:01:39.237Z,43
2023-02-16T14:02:47.953Z,52
2023-02-16T14:03:58.438Z,50
2023-02-16T14:05:05.367Z,60
2023-02-16T14:06:13.687Z,58
2023-02-16T14:07:25.873Z,54
2023-02-16T14:08:39.168Z,61
2023-02-16T14:09:46.050Z,57
2023-02-16T14:10:53.123Z,61
2023-02-16T14:12:00.052Z,60
2023-02-16T14:13:07.794Z,69
2023-02-16T14:14:14.739Z,64
2023-02-16T14:15:33.447Z,66
2023-02-16T14:16:41.212Z,67
2023-02-16T14:17:51.011Z,62
2023-02-16T14:19:06.054Z,61
2023-02-16T14:20:19.113Z,66
2023-02-16T14:21:26.848Z,65
2023-02-16T14:22:38.910Z,70
2023-02-16T14:23:48.853Z,68
2023-02-16T14:25:01.582Z,77
2023-02-16T14:26:19.198Z,69
2023-02-16T14:27:28.771Z,74
2023-02-16T14:28:45.434Z,79
2023-02-16T14:29:55.686Z,75
2023-02-16T14:31:06.701Z,74
2023-02-16T14:32:16.930Z,79
2023-02-16T14:33:23.877Z,81
2023-02-16T14:34:40.907Z,76
2023-02-16T14:36:09.899Z,76
2023-02-16T14:37:21.833Z,80
2023-02-16T14:38:32.590Z,71
2023-02-16T14:40:06.778Z,82
2023-02-16T14:40:55.710Z,79
2023-02-16T14:42:05.654Z,82
2023-02-16T14:43:18.587Z,86
2023-02-16T14:44:35.458Z,95
2023-02-16T14:45:43.705Z,85
2023-02-16T14:46:55.763Z,96
2023-02-16T14:48:11.941Z,100
2023-02-16T14:49:25.643Z,93
2023-02-16T14:50:38.412Z,96
2023-02-16T14:51:51.780Z,102
2023-02-16T14:53:08.954Z,115
2023-02-16T14:54:21.879Z,109
2023-02-16T14:55:37.055Z,108
2023-02-16T14:56:55.852Z,118
2023-02-16T14:58:08.341Z,122
2023-02-16T14:59:18.287Z,122
2023-02-16T15:00:30.544Z,117
2023-02-16T15:01:45.405Z,120
2023-02-16T15:02:56.235Z,122
2023-02-16T15:04:06.816Z,109
2023-02-16T15:05:14.984Z,117
2023-02-16T15:06:25.660Z,112
2023-02-16T15:07:42.358Z,111
2023-02-16T15:08:50.963Z,118
2023-02-16T15:10:06.669Z,117
2023-02-16T15:11:15.706Z,121
2023-02-16T15:12:24.043Z,121
2023-02-16T15:13:34.547Z,110
2023-02-16T15:14:41.919Z,117
2023-02-16T15:15:54.750Z,122
2023-02-16T15:17:02.273Z,118
2023-02-16T15:18:16.587Z,111
2023-02-16T15:19:25.023Z,124
2023-02-16T15:20:35.991Z,124
2023-02-16T15:21:43.713Z,118
2023-02-16T15:22:55.207Z,110
2023-02-16T15:24:04.243Z,116
2023-02-16T15:25:14.792Z,115
2023-02-16T15:26:31.098Z,120
2023-02-16T15:27:39.183Z,113
2023-02-16T15:28:47.147Z,111
2023-02-16T15:29:54.736Z,112
2023-02-16T15:31:15.105Z,125
2023-02-16T15:32:23.349Z,115
2023-02-16T15:33:35.738Z,115
2023-02-16T15:34:46.695Z,113
2023-02-16T15:35:54.642Z,113
2023-02-16T15:37:07.230Z,113
2023-02-16T15:38:24.123Z,118
2023-02-16T15:39:48.512Z,115
2023-02-16T15:40:48.727Z,112
2023-02-16T15:42:00.146Z,109
2023-02-16T15:43:12.636Z,104
2023-02-16T15:44:27.436Z,121
2023-02-16T15:45:37.472Z,120
2023-02-16T15:46:45.828Z,112
2023-02-16T15:47:57.543Z,127
2023-02-16T15:49:15.603Z,111
2023-02-16T15:50:34.953Z,114
2023-02-16T15:51:46.992Z,116
2023-02-16T15:52:55.702Z,124
2023-02-16T15:54:03.313Z,122
2023-02-16T15:55:29.549Z,114
2023-02-16T15:56:36.754Z,117
2023-02-16T15:57:47.772Z,119
2023-02-16T15:58:56.588Z,111
2023-02-16T16:00:04.765Z,113
2023-02-16T16:01:31.726Z,115
2023-02-16T16:02:52.875Z,117
2023-02-16T16:04:01.147Z,125
2023-02-16T16:05:15.169Z,115
2023-02-16T16:06:24.892Z,124
2023-02-16T16:07:32.133Z,119
2023-02-16T16:08:40.932Z,118
2023-02-16T16:09:50.534Z,112
2023-02-16T16:10:59.235Z,125
2023-02-16T16:12:10.348Z,121
2023-02-16T16:13:19.046Z,126
2023-02-16T16:14:31.441Z,114
2023-02-16T16:15:42.032Z,118
2023-02-16T16:16:51.228Z,119